Monticello Municipal Ellis Field Monticello US
ICAO: KLLQ
IATA: LLQ
Category: Medium
Scheduled Services: No

Elevation: 270 ft
TransAlt. 18000 ft.

Airport Communications:
ASOS:133.325
MEMPHIS CNTR:135.875
JONESBORO RDO:122.1
CTAF/UNICOM:122.8

KLLQ Zoom In..

If you have problems with the map follow the link
https://www.worldairports.se/pages/airport.php?
ICAO=KLLQ

Runways:

(A) RW 03 length 5020 ft width 75 ft
---- / hdg 31

(B) RW 21 length 5020 ft width 75 ft
---- / hdg 211

Location; KLLQ
Day. 29 / Time. 17.53 Zulu
* Altimeter: 29.99
* Temperature: 11° c. 51.8°f.
* Wind from: VRB° Speed 05 kn.
Dewpoint: 08° c.
Visibility: 10 Statute Miles.
Clouds: Overcast 1000 ft.

KLLQ 291753Z AUTO VRB05KT 10SM OVC010 11/08 A2999 RMK AO2 CIG 007V014 SLP156 60015 T01060078 10106 20078 53008


Wind From VRB°
Speed 05 kn.

 
 
jpsmedia worldairports.se 2020   terms of use